createdAt,value
2018-12-20T00:01:29.182Z,-0.37
2018-12-20T00:03:58.162Z,-0.27
2018-12-20T00:06:26.989Z,-0.28
2018-12-20T00:08:55.861Z,-0.23
2018-12-20T00:11:24.675Z,-0.10
2018-12-20T00:13:53.499Z,-0.18
2018-12-20T00:16:22.534Z,-0.17
2018-12-20T00:18:51.461Z,-0.20
2018-12-20T00:21:26.477Z,-0.08
2018-12-20T00:23:55.421Z,-0.18
2018-12-20T00:26:24.273Z,-0.11
2018-12-20T00:28:53.088Z,-0.15
2018-12-20T00:31:21.956Z,-0.24
2018-12-20T00:33:50.879Z,-0.36
2018-12-20T00:36:19.756Z,-0.37
2018-12-20T00:38:48.682Z,-0.37
2018-12-20T00:41:17.520Z,-0.55
2018-12-20T00:43:47.686Z,-0.55
2018-12-20T00:46:16.623Z,-0.55
2018-12-20T00:48:45.590Z,-0.48
2018-12-20T00:51:14.546Z,-0.52
2018-12-20T00:53:43.418Z,-0.46
2018-12-20T00:56:12.251Z,-0.45
2018-12-20T00:58:42.403Z,-0.51
2018-12-20T01:01:11.310Z,-0.41
2018-12-20T01:03:40.324Z,-0.58
2018-12-20T01:06:09.233Z,-0.51
2018-12-20T01:08:38.074Z,-0.40
2018-12-20T01:11:07.633Z,-0.47
2018-12-20T01:13:36.580Z,-0.26
2018-12-20T01:16:05.639Z,-0.30
2018-12-20T01:18:34.603Z,-0.22
2018-12-20T01:21:03.586Z,-0.24
2018-12-20T01:23:32.451Z,-0.29
2018-12-20T01:26:01.262Z,-0.10
2018-12-20T01:28:30.190Z,-0.04
2018-12-20T01:30:59.227Z,-0.08
2018-12-20T01:33:28.287Z,0.11
2018-12-20T01:35:57.278Z,-0.09
2018-12-20T01:38:26.273Z,-0.01
2018-12-20T01:40:55.620Z,-0.06
2018-12-20T01:43:24.649Z,-0.26
2018-12-20T01:45:53.631Z,-0.65
2018-12-20T01:48:22.597Z,-0.70
2018-12-20T01:50:51.709Z,-0.64
2018-12-20T01:53:20.573Z,-0.60
2018-12-20T01:55:49.481Z,-0.63
2018-12-20T01:58:18.491Z,-0.36
2018-12-20T02:00:47.479Z,-0.60
2018-12-20T02:03:16.606Z,-0.57
2018-12-20T02:05:45.532Z,-0.32
2018-12-20T02:08:14.361Z,-0.19
2018-12-20T02:10:43.183Z,-0.19
2018-12-20T02:13:12.174Z,-0.06
2018-12-20T02:15:41.344Z,0.01
2018-12-20T02:18:10.612Z,-0.11
2018-12-20T02:20:39.573Z,-0.17
2018-12-20T02:23:08.594Z,0.00
2018-12-20T02:25:37.588Z,0.15
2018-12-20T02:28:06.499Z,0.08
2018-12-20T02:30:35.683Z,-0.02
2018-12-20T02:33:04.917Z,0.18
2018-12-20T02:35:33.886Z,-0.13
2018-12-20T02:38:02.916Z,0.13
2018-12-20T02:40:31.909Z,0.12
2018-12-20T02:43:01.013Z,0.00
2018-12-20T02:45:30.187Z,-0.10
2018-12-20T02:47:59.397Z,-0.15
2018-12-20T02:50:28.551Z,-0.43
2018-12-20T02:52:57.653Z,-0.35
2018-12-20T02:55:26.776Z,-0.28
2018-12-20T02:57:55.943Z,-0.22
2018-12-20T03:00:25.025Z,-0.26
2018-12-20T03:02:53.910Z,-0.15
2018-12-20T03:05:23.242Z,-0.21
2018-12-20T03:07:52.392Z,-0.12
2018-12-20T03:10:21.226Z,-0.12
2018-12-20T03:12:50.258Z,-0.26
2018-12-20T03:15:20.110Z,-0.41
2018-12-20T03:17:49.833Z,-0.52
2018-12-20T03:20:18.890Z,-0.52
2018-12-20T03:22:47.835Z,-0.50
2018-12-20T03:25:16.734Z,-0.51
2018-12-20T03:27:45.635Z,-0.43
2018-12-20T03:30:14.578Z,-0.43
2018-12-20T03:32:43.766Z,-0.40
2018-12-20T03:35:14.309Z,-0.44
2018-12-20T03:37:43.942Z,-0.41
2018-12-20T03:40:13.185Z,-0.51
2018-12-20T03:42:42.305Z,-0.48
2018-12-20T03:45:13.155Z,-0.37
2018-12-20T03:47:42.485Z,-0.48
2018-12-20T03:50:11.924Z,-0.51
2018-12-20T03:52:41.111Z,-0.37
2018-12-20T03:55:09.959Z,-0.39
2018-12-20T03:57:38.999Z,-0.47
2018-12-20T04:00:08.409Z,-0.47
2018-12-20T04:02:37.614Z,-0.41
2018-12-20T04:05:07.018Z,-0.37
2018-12-20T04:07:36.190Z,-0.28
2018-12-20T04:10:05.582Z,-0.28
2018-12-20T04:12:34.753Z,-0.27
2018-12-20T04:15:03.953Z,-0.60
2018-12-20T04:17:33.047Z,-0.73
2018-12-20T04:20:01.975Z,-0.41
2018-12-20T04:22:30.965Z,-0.37
2018-12-20T04:25:00.267Z,-0.18
2018-12-20T04:27:29.155Z,-0.19
2018-12-20T04:29:58.051Z,-0.38
2018-12-20T04:32:27.004Z,-0.55
2018-12-20T04:34:56.210Z,-0.65
2018-12-20T04:37:25.076Z,-0.33
2018-12-20T04:39:54.069Z,-0.56
2018-12-20T04:42:23.318Z,-0.66
2018-12-20T04:44:52.603Z,-0.55
2018-12-20T04:47:21.894Z,-0.56
2018-12-20T04:49:50.844Z,-0.07
2018-12-20T04:52:19.730Z,0.01
2018-12-20T04:54:48.898Z,0.12
2018-12-20T04:57:18.057Z,-0.01
2018-12-20T04:59:47.205Z,-0.05
2018-12-20T05:02:16.402Z,-0.09
2018-12-20T05:04:45.481Z,-0.04
2018-12-20T05:07:14.328Z,0.07
2018-12-20T05:09:43.158Z,0.09
2018-12-20T05:12:12.034Z,-0.13
2018-12-20T05:14:40.956Z,-0.71
2018-12-20T05:17:09.771Z,-0.44
2018-12-20T05:19:38.641Z,-0.29
2018-12-20T05:22:07.476Z,-0.82
2018-12-20T05:24:36.491Z,-0.69
2018-12-20T05:27:05.444Z,-0.69
2018-12-20T05:29:34.632Z,-0.87
2018-12-20T05:32:03.653Z,-0.90
2018-12-20T05:34:32.520Z,-0.76
2018-12-20T05:37:01.583Z,-0.74
2018-12-20T05:39:30.747Z,-0.59
2018-12-20T05:41:59.663Z,-0.47
2018-12-20T05:44:28.757Z,-0.33
2018-12-20T05:46:58.001Z,-0.25
2018-12-20T05:49:26.825Z,-0.32
2018-12-20T05:51:55.644Z,-0.20
2018-12-20T05:54:24.507Z,-0.15
2018-12-20T05:56:53.675Z,-0.16
2018-12-20T05:59:22.745Z,-0.30
2018-12-20T06:01:51.608Z,-0.33
2018-12-20T06:04:20.560Z,-0.23
2018-12-20T06:06:49.630Z,-0.22
2018-12-20T06:09:18.481Z,-0.20
2018-12-20T06:11:47.275Z,-0.19
2018-12-20T06:14:16.374Z,-0.08
2018-12-20T06:16:45.850Z,-0.29
2018-12-20T06:19:14.730Z,-0.20
2018-12-20T06:21:43.569Z,-0.16
2018-12-20T06:24:12.457Z,-0.37
2018-12-20T06:26:41.352Z,-0.23
2018-12-20T06:29:10.133Z,-0.22
2018-12-20T06:31:38.954Z,-0.01
2018-12-20T06:34:07.808Z,0.02
2018-12-20T06:36:36.626Z,-0.14
2018-12-20T06:39:08.569Z,-0.15
2018-12-20T06:41:37.432Z,-0.12
2018-12-20T06:44:07.262Z,-0.08
2018-12-20T06:46:38.828Z,-0.20
2018-12-20T06:49:07.644Z,-0.14
2018-12-20T06:51:36.576Z,-0.05
2018-12-20T06:54:05.391Z,0.10
2018-12-20T06:56:34.221Z,-0.11
2018-12-20T06:59:03.061Z,-0.02
2018-12-20T07:01:31.856Z,0.13
2018-12-20T07:04:00.691Z,0.07
2018-12-20T07:06:29.547Z,0.01
2018-12-20T07:08:58.353Z,0.25
2018-12-20T07:11:27.170Z,0.16
2018-12-20T07:13:56.004Z,0.32
2018-12-20T07:16:29.307Z,0.14
2018-12-20T07:18:55.716Z,0.34
2018-12-20T07:21:24.585Z,0.44
2018-12-20T07:23:53.381Z,0.52
2018-12-20T07:26:22.189Z,0.64
2018-12-20T07:28:51.042Z,0.83
2018-12-20T07:31:19.841Z,0.47
2018-12-20T07:33:48.628Z,0.63
2018-12-20T07:36:17.485Z,0.85
2018-12-20T07:38:46.308Z,0.95
2018-12-20T07:41:15.748Z,0.75
2018-12-20T07:43:44.555Z,0.69
2018-12-20T07:46:13.582Z,0.59
2018-12-20T07:48:42.440Z,0.80
2018-12-20T07:51:11.261Z,0.78
2018-12-20T07:53:40.104Z,1.08
2018-12-20T07:56:09.187Z,1.39
2018-12-20T07:58:38.060Z,1.58
2018-12-20T08:01:06.906Z,1.36
2018-12-20T08:03:35.884Z,1.17
2018-12-20T08:06:04.864Z,1.14
2018-12-20T08:08:33.698Z,0.99
2018-12-20T08:11:02.631Z,1.28
2018-12-20T08:13:31.430Z,1.65
2018-12-20T08:16:00.231Z,1.22
2018-12-20T08:18:29.061Z,1.24
2018-12-20T08:20:57.864Z,1.17
2018-12-20T08:23:26.653Z,1.30
2018-12-20T08:25:56.834Z,1.05
2018-12-20T08:28:25.652Z,1.18
2018-12-20T08:30:54.469Z,1.74
2018-12-20T08:33:23.333Z,2.16
2018-12-20T08:35:52.145Z,1.85
2018-12-20T08:38:21.006Z,1.54
2018-12-20T08:40:51.202Z,1.96
2018-12-20T08:43:19.985Z,2.26
2018-12-20T08:45:48.969Z,2.49
2018-12-20T08:48:17.813Z,2.12
2018-12-20T08:50:46.617Z,2.08
2018-12-20T08:53:17.053Z,2.54
2018-12-20T08:55:45.859Z,2.29
2018-12-20T08:58:14.683Z,1.86
2018-12-20T09:00:43.593Z,1.44
2018-12-20T09:03:12.462Z,1.03
2018-12-20T09:05:41.336Z,1.00
2018-12-20T09:08:10.232Z,1.28
2018-12-20T09:10:39.084Z,1.22
2018-12-20T09:13:09.657Z,0.75
2018-12-20T09:15:40.037Z,1.15
2018-12-20T09:18:08.841Z,0.84
2018-12-20T09:20:37.658Z,0.98
2018-12-20T09:23:06.776Z,0.85
2018-12-20T09:25:35.588Z,0.57
2018-12-20T09:28:04.393Z,0.59
2018-12-20T09:30:34.580Z,1.11
2018-12-20T09:33:04.169Z,0.92
2018-12-20T09:35:33.012Z,1.21
2018-12-20T09:38:01.854Z,1.22
2018-12-20T09:40:30.758Z,0.88
2018-12-20T09:42:59.594Z,1.00
2018-12-20T09:45:28.460Z,1.18
2018-12-20T09:48:02.603Z,1.01
2018-12-20T09:50:31.593Z,0.84
2018-12-20T09:53:00.397Z,0.92
2018-12-20T09:55:29.197Z,0.83
2018-12-20T09:57:58.121Z,0.88
2018-12-20T10:00:26.932Z,0.80
2018-12-20T10:02:55.928Z,0.96
2018-12-20T10:05:24.833Z,0.98
2018-12-20T10:07:53.643Z,0.96
2018-12-20T10:10:22.510Z,1.22
2018-12-20T10:12:51.420Z,1.38
2018-12-20T10:15:20.303Z,1.35
2018-12-20T10:17:49.161Z,1.79
2018-12-20T10:20:17.975Z,1.71
2018-12-20T10:22:46.780Z,1.84
2018-12-20T10:25:15.785Z,1.88
2018-12-20T10:27:44.590Z,2.07
2018-12-20T10:30:13.574Z,1.36
2018-12-20T10:32:42.399Z,1.06
2018-12-20T10:35:11.277Z,1.15
2018-12-20T10:37:40.117Z,1.15
2018-12-20T10:40:08.960Z,1.53
2018-12-20T10:42:37.778Z,1.73
2018-12-20T10:45:07.446Z,1.63
2018-12-20T10:47:36.237Z,2.40
2018-12-20T10:50:05.987Z,2.40
2018-12-20T10:52:34.795Z,2.78
2018-12-20T10:55:03.782Z,3.10
2018-12-20T10:57:32.588Z,3.41
2018-12-20T11:00:01.419Z,3.07
2018-12-20T11:02:35.548Z,3.42
2018-12-20T11:05:10.292Z,2.87
2018-12-20T11:07:44.189Z,2.14
2018-12-20T11:10:18.127Z,1.66
2018-12-20T11:12:49.153Z,1.63
2018-12-20T11:15:18.275Z,1.53
2018-12-20T11:17:47.077Z,1.71
2018-12-20T11:20:17.186Z,1.97
2018-12-20T11:22:45.999Z,2.05
2018-12-20T11:25:14.822Z,1.90
2018-12-20T11:27:43.664Z,1.59
2018-12-20T11:30:12.541Z,1.78
2018-12-20T11:32:42.681Z,2.22
2018-12-20T11:35:11.682Z,1.65
2018-12-20T11:37:40.608Z,2.11
2018-12-20T11:40:10.295Z,1.62
2018-12-20T11:42:39.152Z,2.09
2018-12-20T11:45:08.277Z,2.19
2018-12-20T11:47:45.719Z,1.85
2018-12-20T11:50:08.719Z,1.34
2018-12-20T11:52:42.359Z,1.72
2018-12-20T11:55:08.548Z,1.99
2018-12-20T11:57:37.391Z,2.07
2018-12-20T12:00:09.745Z,2.20
2018-12-20T12:02:38.592Z,1.72
2018-12-20T12:05:09.077Z,1.70
2018-12-20T12:07:37.927Z,2.08
2018-12-20T12:10:07.552Z,1.93
2018-12-20T12:12:36.360Z,2.28
2018-12-20T12:15:07.186Z,1.86
2018-12-20T12:17:36.030Z,1.50
2018-12-20T12:20:05.076Z,1.87
2018-12-20T12:22:33.893Z,2.32
2018-12-20T12:25:02.727Z,2.77
2018-12-20T12:27:31.526Z,3.04
2018-12-20T12:30:00.370Z,2.68
2018-12-20T12:32:29.216Z,2.57
2018-12-20T12:34:58.029Z,3.02
2018-12-20T12:37:26.845Z,3.24
2018-12-20T12:39:55.782Z,3.33
2018-12-20T12:42:24.574Z,3.37
2018-12-20T12:44:53.385Z,3.46
2018-12-20T12:47:26.328Z,3.68
2018-12-20T12:49:55.126Z,3.66
2018-12-20T12:52:23.924Z,3.86
2018-12-20T12:54:54.167Z,3.91
2018-12-20T12:57:22.999Z,3.93
2018-12-20T12:59:51.813Z,3.99
2018-12-20T13:02:20.664Z,3.99
2018-12-20T13:04:49.457Z,3.85
2018-12-20T13:07:18.283Z,3.87
2018-12-20T13:09:47.129Z,3.90
2018-12-20T13:12:15.927Z,3.74
2018-12-20T13:14:44.742Z,3.44
2018-12-20T13:17:13.969Z,3.15
2018-12-20T13:19:42.798Z,2.92
2018-12-20T13:22:11.693Z,2.99
2018-12-20T13:24:40.704Z,3.16
2018-12-20T13:27:09.552Z,3.25
2018-12-20T13:29:38.408Z,3.47
2018-12-20T13:32:07.300Z,3.42
2018-12-20T13:34:36.141Z,3.22
2018-12-20T13:37:05.019Z,3.15
2018-12-20T13:39:33.809Z,2.91
2018-12-20T13:42:03.816Z,2.96
2018-12-20T13:44:34.274Z,2.98
2018-12-20T13:47:03.182Z,3.12
2018-12-20T13:49:31.985Z,3.23
2018-12-20T13:52:00.804Z,3.31
2018-12-20T13:54:29.706Z,3.12
2018-12-20T13:56:58.538Z,3.11
2018-12-20T13:59:28.653Z,3.13
2018-12-20T14:01:57.496Z,3.07
2018-12-20T14:04:26.333Z,3.10
2018-12-20T14:06:55.252Z,3.08
2018-12-20T14:09:24.172Z,3.01
2018-12-20T14:11:52.986Z,2.90
2018-12-20T14:14:21.806Z,2.81
2018-12-20T14:16:50.673Z,2.65
2018-12-20T14:19:19.533Z,2.53
2018-12-20T14:21:48.329Z,2.53
2018-12-20T14:24:17.213Z,2.49
2018-12-20T14:26:46.052Z,2.49
2018-12-20T14:29:14.863Z,2.42
2018-12-20T14:31:43.674Z,2.37
2018-12-20T14:34:12.526Z,2.30
2018-12-20T14:36:41.494Z,2.20
2018-12-20T14:39:10.323Z,2.14
2018-12-20T14:41:39.213Z,2.12
2018-12-20T14:44:08.083Z,2.12
2018-12-20T14:46:36.880Z,2.04
2018-12-20T14:49:05.973Z,2.03
2018-12-20T14:51:35.513Z,2.02
2018-12-20T14:54:04.353Z,1.95
2018-12-20T14:56:34.482Z,1.93
2018-12-20T14:59:03.414Z,1.98
2018-12-20T15:01:32.220Z,1.91
2018-12-20T15:04:01.081Z,1.93
2018-12-20T15:06:29.881Z,1.94
2018-12-20T15:08:58.688Z,2.03
2018-12-20T15:11:27.572Z,2.08
2018-12-20T15:13:56.383Z,2.12
2018-12-20T15:16:25.230Z,2.28
2018-12-20T15:18:54.133Z,2.29
2018-12-20T15:21:22.940Z,2.38
2018-12-20T15:23:51.805Z,2.39
2018-12-20T15:26:20.726Z,2.38
2018-12-20T15:28:49.530Z,2.53
2018-12-20T15:31:18.396Z,2.58
2018-12-20T15:33:47.180Z,2.54
2018-12-20T15:36:15.991Z,2.39
2018-12-20T15:38:44.972Z,2.52
2018-12-20T15:41:13.854Z,2.70
2018-12-20T15:43:42.757Z,2.81
2018-12-20T15:46:13.094Z,2.88
2018-12-20T15:48:41.890Z,2.88
2018-12-20T15:51:11.009Z,2.92
2018-12-20T15:53:39.912Z,2.97
2018-12-20T15:56:08.829Z,3.00
2018-12-20T15:58:38.497Z,3.00
2018-12-20T16:01:08.687Z,3.03
2018-12-20T16:03:37.571Z,3.01
2018-12-20T16:06:06.382Z,2.78
2018-12-20T16:08:35.245Z,2.84
2018-12-20T16:11:04.210Z,2.88
2018-12-20T16:13:33.038Z,2.78
2018-12-20T16:16:01.897Z,2.79
2018-12-20T16:18:30.735Z,2.64
2018-12-20T16:20:59.619Z,2.53
2018-12-20T16:23:28.459Z,2.57
2018-12-20T16:25:57.418Z,2.62
2018-12-20T16:28:26.304Z,2.56
2018-12-20T16:30:55.181Z,2.50
2018-12-20T16:33:23.989Z,2.54
2018-12-20T16:35:52.838Z,2.57
2018-12-20T16:38:23.110Z,2.70
2018-12-20T16:40:52.163Z,2.68
2018-12-20T16:43:20.993Z,2.87
2018-12-20T16:45:50.047Z,2.89
2018-12-20T16:48:24.867Z,2.94
2018-12-20T16:50:55.797Z,2.97
2018-12-20T16:53:24.826Z,3.04
2018-12-20T16:55:53.663Z,3.00
2018-12-20T16:58:22.526Z,2.98
2018-12-20T17:00:51.405Z,2.99
2018-12-20T17:03:20.405Z,3.07
2018-12-20T17:05:49.215Z,3.08
2018-12-20T17:08:20.041Z,3.16
2018-12-20T17:10:48.844Z,3.18
2018-12-20T17:13:17.698Z,3.21
2018-12-20T17:15:46.953Z,3.18
2018-12-20T17:18:15.802Z,3.22
2018-12-20T17:20:46.025Z,3.18
2018-12-20T17:23:14.892Z,3.15
2018-12-20T17:25:43.724Z,3.14
2018-12-20T17:28:13.809Z,3.24
2018-12-20T17:30:42.608Z,3.27
2018-12-20T17:33:11.405Z,3.26
2018-12-20T17:35:40.365Z,3.33
2018-12-20T17:38:09.164Z,3.30
2018-12-20T17:40:38.137Z,2.95
2018-12-20T17:43:07.027Z,2.88
2018-12-20T17:45:36.912Z,2.92
2018-12-20T17:48:05.992Z,2.77
2018-12-20T17:50:34.829Z,2.50
2018-12-20T17:53:03.661Z,2.12
2018-12-20T17:55:32.503Z,1.88
2018-12-20T17:58:01.394Z,1.97
2018-12-20T18:00:31.473Z,2.14
2018-12-20T18:03:00.289Z,2.32
2018-12-20T18:05:29.222Z,2.44
2018-12-20T18:07:58.021Z,2.44
2018-12-20T18:10:26.844Z,2.63
2018-12-20T18:12:55.735Z,2.63
2018-12-20T18:15:24.576Z,2.73
2018-12-20T18:17:53.437Z,2.77
2018-12-20T18:20:22.270Z,2.84
2018-12-20T18:22:51.109Z,2.86
2018-12-20T18:25:19.970Z,2.68
2018-12-20T18:27:48.872Z,2.80
2018-12-20T18:30:17.698Z,2.65
2018-12-20T18:32:46.517Z,2.78
2018-12-20T18:35:15.392Z,2.83
2018-12-20T18:37:44.418Z,2.87
2018-12-20T18:40:13.247Z,2.34
2018-12-20T18:42:42.090Z,2.40
2018-12-20T18:45:12.622Z,2.10
2018-12-20T18:47:41.440Z,1.70
2018-12-20T18:50:11.321Z,1.69
2018-12-20T18:52:40.207Z,1.66
2018-12-20T18:55:09.033Z,1.75
2018-12-20T18:57:37.870Z,2.10
2018-12-20T19:00:09.025Z,2.24
2018-12-20T19:02:37.966Z,2.41
2018-12-20T19:05:08.193Z,2.45
2018-12-20T19:07:37.057Z,2.50
2018-12-20T19:10:07.359Z,2.45
2018-12-20T19:12:36.187Z,2.50
2018-12-20T19:15:06.089Z,2.67
2018-12-20T19:17:34.980Z,2.45
2018-12-20T19:20:03.974Z,2.25
2018-12-20T19:22:32.917Z,2.31
2018-12-20T19:25:01.836Z,2.25
2018-12-20T19:27:30.725Z,2.47
2018-12-20T19:29:59.672Z,2.56
2018-12-20T19:32:28.473Z,2.58
2018-12-20T19:34:57.295Z,2.51
2018-12-20T19:37:26.167Z,2.56
2018-12-20T19:40:00.414Z,2.62
2018-12-20T19:42:29.242Z,2.41
2018-12-20T19:44:58.183Z,2.52
2018-12-20T19:47:27.092Z,2.43
2018-12-20T19:50:04.588Z,2.49
2018-12-20T19:52:27.365Z,2.54
2018-12-20T19:54:57.553Z,2.62
2018-12-20T19:57:26.371Z,2.62
2018-12-20T19:59:55.268Z,2.74
2018-12-20T20:02:24.105Z,2.72
2018-12-20T20:04:52.918Z,2.65
2018-12-20T20:07:23.884Z,2.69
2018-12-20T20:09:52.590Z,2.72
2018-12-20T20:12:21.447Z,2.66
2018-12-20T20:14:50.327Z,2.65
2018-12-20T20:17:19.192Z,2.55
2018-12-20T20:19:48.006Z,2.63
2018-12-20T20:22:16.810Z,2.68
2018-12-20T20:24:45.653Z,2.49
2018-12-20T20:27:14.600Z,2.50
2018-12-20T20:29:43.489Z,2.47
2018-12-20T20:32:12.396Z,2.47
2018-12-20T20:34:41.208Z,2.51
2018-12-20T20:37:10.093Z,2.49
2018-12-20T20:39:38.900Z,2.46
2018-12-20T20:42:07.785Z,2.53
2018-12-20T20:44:36.590Z,2.68
2018-12-20T20:47:05.495Z,2.57
2018-12-20T20:49:34.289Z,2.62
2018-12-20T20:52:03.564Z,2.58
2018-12-20T20:54:32.511Z,2.56
2018-12-20T20:57:01.311Z,2.54
2018-12-20T20:59:30.125Z,2.28
2018-12-20T21:02:00.338Z,2.36
2018-12-20T21:04:29.264Z,2.46
2018-12-20T21:06:58.154Z,2.52
2018-12-20T21:09:28.199Z,2.57
2018-12-20T21:11:57.080Z,2.45
2018-12-20T21:14:25.892Z,2.47
2018-12-20T21:16:54.737Z,2.50
2018-12-20T21:19:23.561Z,2.50
2018-12-20T21:21:52.388Z,2.46
2018-12-20T21:24:21.293Z,2.23
2018-12-20T21:26:50.375Z,2.11
2018-12-20T21:29:19.217Z,1.96
2018-12-20T21:31:48.182Z,1.77
2018-12-20T21:34:19.039Z,1.69
2018-12-20T21:36:47.857Z,1.59
2018-12-20T21:39:16.711Z,1.59
2018-12-20T21:41:45.515Z,1.49
2018-12-20T21:44:14.843Z,1.44
2018-12-20T21:46:43.730Z,1.41
2018-12-20T21:49:14.006Z,1.37
2018-12-20T21:51:42.815Z,1.28
2018-12-20T21:54:11.657Z,1.34
2018-12-20T21:56:40.512Z,1.32
2018-12-20T21:59:09.382Z,1.31
2018-12-20T22:01:38.242Z,1.44
2018-12-20T22:04:07.093Z,1.45
2018-12-20T22:06:35.901Z,1.44
2018-12-20T22:09:06.994Z,1.21
2018-12-20T22:11:37.908Z,1.12
2018-12-20T22:14:06.732Z,1.14
2018-12-20T22:16:35.581Z,1.12
2018-12-20T22:19:04.395Z,1.05
2018-12-20T22:21:33.237Z,1.09
2018-12-20T22:24:02.067Z,1.12
2018-12-20T22:26:30.925Z,1.13
2018-12-20T22:29:00.473Z,1.12
2018-12-20T22:31:29.303Z,1.04
2018-12-20T22:33:58.133Z,1.02
2018-12-20T22:36:27.169Z,1.08
2018-12-20T22:38:56.048Z,1.08
2018-12-20T22:41:24.883Z,1.11
2018-12-20T22:43:53.914Z,1.04
2018-12-20T22:46:22.745Z,1.08
2018-12-20T22:48:51.557Z,1.05
2018-12-20T22:51:21.096Z,1.06
2018-12-20T22:53:50.039Z,1.11
2018-12-20T22:56:18.850Z,1.17
2018-12-20T22:58:47.712Z,1.04
2018-12-20T23:01:16.694Z,0.97
2018-12-20T23:03:45.660Z,0.94
2018-12-20T23:06:14.567Z,0.94
2018-12-20T23:08:43.460Z,0.97
2018-12-20T23:11:12.277Z,1.04
2018-12-20T23:13:41.140Z,1.05
2018-12-20T23:16:09.973Z,1.07
2018-12-20T23:18:38.804Z,1.00
2018-12-20T23:21:08.020Z,0.99
2018-12-20T23:23:36.850Z,0.96
2018-12-20T23:26:05.738Z,0.94
2018-12-20T23:28:34.644Z,0.89
2018-12-20T23:31:03.503Z,0.88
2018-12-20T23:33:32.317Z,0.83
2018-12-20T23:36:01.187Z,0.89
2018-12-20T23:38:30.106Z,1.00
2018-12-20T23:40:58.928Z,0.89
2018-12-20T23:43:27.851Z,0.85
2018-12-20T23:45:56.779Z,0.84
2018-12-20T23:48:25.765Z,0.84
2018-12-20T23:50:54.744Z,0.80
2018-12-20T23:53:23.772Z,0.74
2018-12-20T23:55:52.660Z,0.78
2018-12-20T23:58:21.501Z,0.85
